createdAt,value
2017-11-04T00:00:25.865Z,1003.21
2017-11-04T00:01:06.403Z,1003.2
2017-11-04T00:01:46.729Z,1003.18
2017-11-04T00:02:27.332Z,1003.16
2017-11-04T00:04:47.107Z,1003.08
2017-11-04T00:05:27.389Z,1003.12
2017-11-04T00:06:07.767Z,1003.06
2017-11-04T00:06:48.207Z,1003.07
2017-11-04T00:07:28.665Z,1003.06
2017-11-04T00:08:09.095Z,1003.03
2017-11-04T00:08:49.447Z,1003.01
2017-11-04T00:09:29.898Z,1002.98
2017-11-04T00:10:10.250Z,1002.98
2017-11-04T00:10:50.679Z,1003.01
2017-11-04T00:11:31.108Z,1003
2017-11-04T00:12:11.473Z,1003.03
2017-11-04T00:12:51.888Z,1002.99
2017-11-04T00:13:32.331Z,1003.02
2017-11-04T00:14:12.702Z,1002.96
2017-11-04T00:14:53.094Z,1002.99
2017-11-04T00:15:33.547Z,1002.97
2017-11-04T00:16:13.933Z,1003
2017-11-04T00:16:54.315Z,1003.01
2017-11-04T00:17:34.725Z,1003.03
2017-11-04T00:18:15.176Z,1002.98
2017-11-04T00:18:55.552Z,1002.99
2017-11-04T00:19:35.895Z,1003
2017-11-04T00:20:16.412Z,1002.97
2017-11-04T00:20:56.864Z,1002.97
2017-11-04T00:21:37.309Z,1002.97
2017-11-04T00:22:17.727Z,1002.99
2017-11-04T00:22:58.207Z,1002.99
2017-11-04T00:23:38.612Z,1002.98
2017-11-04T00:24:19.021Z,1002.97
2017-11-04T00:24:59.468Z,1002.96
2017-11-04T00:25:39.882Z,1002.94
2017-11-04T00:26:20.299Z,1002.95
2017-11-04T00:27:00.643Z,1002.92
2017-11-04T00:27:41.068Z,1002.92
2017-11-04T00:28:21.494Z,1002.95
2017-11-04T00:29:01.937Z,1002.88
2017-11-04T00:29:42.387Z,1002.85
2017-11-04T00:30:22.874Z,1002.86
2017-11-04T00:31:03.306Z,1002.87
2017-11-04T00:31:43.741Z,1002.88
2017-11-04T00:32:24.169Z,1002.83
2017-11-04T00:33:04.501Z,1002.85
2017-11-04T00:33:44.991Z,1002.83
2017-11-04T00:34:25.528Z,1002.86
2017-11-04T00:35:05.966Z,1002.82
2017-11-04T00:35:46.376Z,1002.81
2017-11-04T00:36:26.805Z,1002.8
2017-11-04T00:37:07.207Z,1002.77
2017-11-04T00:37:47.699Z,1002.74
2017-11-04T00:38:28.139Z,1002.8
2017-11-04T00:39:08.609Z,1002.79
2017-11-04T00:39:49.023Z,1002.78
2017-11-04T00:40:29.399Z,1002.79
2017-11-04T00:41:09.785Z,1002.75
2017-11-04T00:41:50.199Z,1002.74
2017-11-04T00:42:30.522Z,1002.75
2017-11-04T00:43:11.031Z,1002.76
2017-11-04T00:43:51.388Z,1002.74
2017-11-04T00:44:31.883Z,1002.75
2017-11-04T00:45:12.370Z,1002.72
2017-11-04T00:45:52.745Z,1002.7
2017-11-04T00:46:33.191Z,1002.71
2017-11-04T00:47:13.670Z,1002.69
2017-11-04T00:47:54.083Z,1002.72
2017-11-04T00:48:34.610Z,1002.71
2017-11-04T00:49:15.029Z,1002.71
2017-11-04T00:49:55.389Z,1002.71
2017-11-04T00:50:35.906Z,1002.74
2017-11-04T00:51:16.305Z,1002.72
2017-11-04T00:51:56.768Z,1002.72
2017-11-04T00:52:37.197Z,1002.71
2017-11-04T00:53:17.620Z,1002.68
2017-11-04T00:53:57.947Z,1002.72
2017-11-04T00:54:38.346Z,1002.7
2017-11-04T00:55:18.726Z,1002.68
2017-11-04T00:55:59.124Z,1002.68
2017-11-04T00:56:39.522Z,1002.68
2017-11-04T00:57:19.903Z,1002.68
2017-11-04T00:58:00.310Z,1002.65
2017-11-04T00:58:40.682Z,1002.64
2017-11-04T00:59:21.168Z,1002.69
2017-11-04T01:00:01.570Z,1002.64
2017-11-04T01:00:41.986Z,1002.68
2017-11-04T01:01:22.368Z,1002.63
2017-11-04T01:02:02.782Z,1002.67
2017-11-04T01:02:43.209Z,1002.7
2017-11-04T01:03:23.614Z,1002.64
2017-11-04T01:04:03.994Z,1002.65
2017-11-04T01:04:44.411Z,1002.6
2017-11-04T01:05:24.880Z,1002.64
2017-11-04T01:06:05.324Z,1002.64
2017-11-04T01:06:45.757Z,1002.64
2017-11-04T01:07:26.142Z,1002.64
2017-11-04T01:08:06.501Z,1002.65
2017-11-04T01:08:46.945Z,1002.63
2017-11-04T01:09:27.392Z,1002.66
2017-11-04T01:10:07.854Z,1002.63
2017-11-04T01:10:48.226Z,1002.65
2017-11-04T01:11:28.608Z,1002.66
2017-11-04T01:12:09.040Z,1002.63
2017-11-04T01:12:49.488Z,1002.62
2017-11-04T01:13:29.895Z,1002.6
2017-11-04T01:14:10.339Z,1002.6
2017-11-04T01:14:50.708Z,1002.61
2017-11-04T01:15:31.108Z,1002.59
2017-11-04T01:16:11.588Z,1002.58
2017-11-04T01:16:51.936Z,1002.59
2017-11-04T01:17:32.363Z,1002.58
2017-11-04T01:18:12.766Z,1002.55
2017-11-04T01:18:53.084Z,1002.53
2017-11-04T01:19:33.555Z,1002.49
2017-11-04T01:20:13.940Z,1002.48
2017-11-04T01:20:54.344Z,1002.48
2017-11-04T01:21:34.761Z,1002.5
2017-11-04T01:22:15.252Z,1002.43
2017-11-04T01:22:55.643Z,1002.42
2017-11-04T01:23:36.050Z,1002.38
2017-11-04T01:24:16.493Z,1002.35
2017-11-04T01:24:56.868Z,1002.34
2017-11-04T01:25:37.243Z,1002.34
2017-11-04T01:26:17.619Z,1002.34
2017-11-04T01:26:58.032Z,1002.29
2017-11-04T01:27:38.504Z,1002.25
2017-11-04T01:28:18.845Z,1002.3
2017-11-04T01:28:59.221Z,1002.27
2017-11-04T01:29:39.644Z,1002.23
2017-11-04T01:30:20.096Z,1002.28
2017-11-04T01:31:00.495Z,1002.21
2017-11-04T01:31:40.925Z,1002.2
2017-11-04T01:32:21.461Z,1002.2
2017-11-04T01:33:01.806Z,1002.18
2017-11-04T01:33:42.207Z,1002.18
2017-11-04T01:34:22.645Z,1002.16
2017-11-04T01:35:03.059Z,1002.17
2017-11-04T01:35:43.453Z,1002.18
2017-11-04T01:36:23.890Z,1002.16
2017-11-04T01:37:04.245Z,1002.23
2017-11-04T01:37:44.672Z,1002.18
2017-11-04T01:38:25.139Z,1002.18
2017-11-04T01:39:05.543Z,1002.18
2017-11-04T01:39:45.921Z,1002.16
2017-11-04T01:40:26.428Z,1002.12
2017-11-04T01:41:06.828Z,1002.12
2017-11-04T01:41:47.210Z,1002.09
2017-11-04T01:42:27.649Z,1002.06
2017-11-04T01:43:08.181Z,1002.06
2017-11-04T01:43:48.654Z,1002.07
2017-11-04T01:44:29.011Z,1002.07
2017-11-04T01:45:09.510Z,1002.07
2017-11-04T01:45:49.843Z,1002.06
2017-11-04T01:46:30.339Z,1002.04
2017-11-04T01:47:10.744Z,1002.05
2017-11-04T01:47:51.150Z,1002.01
2017-11-04T01:48:31.519Z,1002.04
2017-11-04T01:49:12.030Z,1002
2017-11-04T01:49:52.477Z,1001.99
2017-11-04T01:50:32.845Z,1001.96
2017-11-04T01:51:13.253Z,1001.94
2017-11-04T01:51:53.598Z,1001.92
2017-11-04T01:52:34.012Z,1001.92
2017-11-04T01:53:14.419Z,1001.93
2017-11-04T01:53:54.848Z,1001.93
2017-11-04T01:54:35.260Z,1001.91
2017-11-04T01:55:15.640Z,1001.92
2017-11-04T01:55:56.088Z,1001.93
2017-11-04T01:56:36.481Z,1001.9
2017-11-04T01:57:16.862Z,1001.93
2017-11-04T01:57:57.222Z,1001.91
2017-11-04T01:58:37.623Z,1001.89
2017-11-04T01:59:18.006Z,1001.89
2017-11-04T01:59:58.414Z,1001.84
2017-11-04T02:00:38.842Z,1001.9
2017-11-04T02:01:19.217Z,1001.84
2017-11-04T02:01:59.664Z,1001.81
2017-11-04T02:02:40.191Z,1001.82
2017-11-04T02:03:20.529Z,1001.78
2017-11-04T02:04:00.982Z,1001.74
2017-11-04T02:04:41.419Z,1001.71
2017-11-04T02:05:21.840Z,1001.7
2017-11-04T02:06:02.233Z,1001.74
2017-11-04T02:06:42.697Z,1001.69
2017-11-04T02:07:23.107Z,1001.7
2017-11-04T02:08:03.584Z,1001.66
2017-11-04T02:08:43.976Z,1001.7
2017-11-04T02:09:24.466Z,1001.68
2017-11-04T02:10:04.918Z,1001.7
2017-11-04T02:10:45.351Z,1001.69
2017-11-04T02:11:25.741Z,1001.72
2017-11-04T02:12:06.208Z,1001.69
2017-11-04T02:12:46.663Z,1001.64
2017-11-04T02:13:27.061Z,1001.65
2017-11-04T02:14:07.420Z,1001.65
2017-11-04T02:14:47.915Z,1001.63
2017-11-04T02:15:28.291Z,1001.63
2017-11-04T02:16:08.712Z,1001.62
2017-11-04T02:16:49.263Z,1001.59
2017-11-04T02:17:29.689Z,1001.58
2017-11-04T02:18:10.137Z,1001.58
2017-11-04T02:18:50.543Z,1001.6
2017-11-04T02:19:30.930Z,1001.6
2017-11-04T02:20:11.341Z,1001.53
2017-11-04T02:20:51.853Z,1001.54
2017-11-04T02:21:32.373Z,1001.51
2017-11-04T02:22:12.821Z,1001.5
2017-11-04T02:22:53.223Z,1001.46
2017-11-04T02:23:33.642Z,1001.52
2017-11-04T02:24:13.993Z,1001.52
2017-11-04T02:24:54.582Z,1001.52
2017-11-04T02:25:35.020Z,1001.51
2017-11-04T02:26:15.371Z,1001.5
2017-11-04T02:26:55.813Z,1001.55
2017-11-04T02:27:36.208Z,1001.52
2017-11-04T02:28:16.618Z,1001.56
2017-11-04T02:28:57.120Z,1001.54
2017-11-04T02:29:37.606Z,1001.51
2017-11-04T02:30:18.000Z,1001.53
2017-11-04T02:30:58.412Z,1001.52
2017-11-04T02:31:38.860Z,1001.53
2017-11-04T02:32:19.281Z,1001.49
2017-11-04T02:32:59.655Z,1001.51
2017-11-04T02:33:40.104Z,1001.51
2017-11-04T02:34:20.485Z,1001.5
2017-11-04T02:35:00.975Z,1001.53
2017-11-04T02:35:41.507Z,1001.56
2017-11-04T02:36:21.947Z,1001.55
2017-11-04T02:37:02.287Z,1001.52
2017-11-04T02:37:42.663Z,1001.48
2017-11-04T02:38:23.107Z,1001.5
2017-11-04T02:39:03.546Z,1001.5
2017-11-04T02:39:43.987Z,1001.49
2017-11-04T02:40:24.416Z,1001.46
2017-11-04T02:41:04.868Z,1001.49
2017-11-04T02:41:45.274Z,1001.52
2017-11-04T02:42:25.619Z,1001.5
2017-11-04T02:43:06.077Z,1001.49
2017-11-04T02:43:46.428Z,1001.46
2017-11-04T02:44:26.821Z,1001.46
2017-11-04T02:45:07.219Z,1001.44
2017-11-04T02:45:47.693Z,1001.44
2017-11-04T02:46:28.074Z,1001.43
2017-11-04T02:47:08.493Z,1001.39
2017-11-04T02:47:48.890Z,1001.4
2017-11-04T02:48:29.361Z,1001.39
2017-11-04T02:49:09.786Z,1001.41
2017-11-04T02:49:50.125Z,1001.37
2017-11-04T02:50:30.544Z,1001.35
2017-11-04T02:51:10.984Z,1001.36
2017-11-04T02:51:51.375Z,1001.35
2017-11-04T02:52:31.858Z,1001.33
2017-11-04T02:53:12.212Z,1001.32
2017-11-04T02:53:52.617Z,1001.39
2017-11-04T02:54:32.998Z,1001.35
2017-11-04T02:55:13.359Z,1001.32
2017-11-04T02:55:53.793Z,1001.41
2017-11-04T02:56:34.167Z,1001.36
2017-11-04T02:57:14.616Z,1001.3
2017-11-04T02:57:54.992Z,1001.32
2017-11-04T02:58:35.365Z,1001.33
2017-11-04T02:59:15.809Z,1001.33
2017-11-04T02:59:56.156Z,1001.35
2017-11-04T03:00:36.567Z,1001.33
2017-11-04T03:01:17.017Z,1001.35
2017-11-04T03:01:57.443Z,1001.36
2017-11-04T03:02:37.838Z,1001.34
2017-11-04T03:03:18.250Z,1001.37
2017-11-04T03:03:58.720Z,1001.34
2017-11-04T03:04:39.179Z,1001.35
2017-11-04T03:05:19.605Z,1001.31
2017-11-04T03:05:59.990Z,1001.29
2017-11-04T03:06:40.391Z,1001.32
2017-11-04T03:07:20.754Z,1001.32
2017-11-04T03:08:01.165Z,1001.35
2017-11-04T03:08:41.616Z,1001.34
2017-11-04T03:09:21.994Z,1001.3
2017-11-04T03:10:02.388Z,1001.32
2017-11-04T03:10:42.773Z,1001.28
2017-11-04T03:11:23.155Z,1001.27
2017-11-04T03:12:03.636Z,1001.27
2017-11-04T03:12:43.993Z,1001.21
2017-11-04T03:13:24.433Z,1001.23
2017-11-04T03:14:04.882Z,1001.25
2017-11-04T03:14:45.343Z,1001.25
2017-11-04T03:15:25.685Z,1001.25
2017-11-04T03:16:06.053Z,1001.22
2017-11-04T03:16:46.457Z,1001.24
2017-11-04T03:17:26.831Z,1001.25
2017-11-04T03:18:07.278Z,1001.26
2017-11-04T03:18:47.742Z,1001.25
2017-11-04T03:19:28.122Z,1001.21
2017-11-04T03:20:08.520Z,1001.25
2017-11-04T03:20:48.950Z,1001.24
2017-11-04T03:21:29.288Z,1001.24
2017-11-04T03:22:09.760Z,1001.21
2017-11-04T03:22:50.137Z,1001.22
2017-11-04T03:23:30.603Z,1001.21
2017-11-04T03:24:10.965Z,1001.19
2017-11-04T03:24:51.380Z,1001.23
2017-11-04T03:25:31.803Z,1001.22
2017-11-04T03:26:12.150Z,1001.24
2017-11-04T03:26:52.594Z,1001.21
2017-11-04T03:27:32.972Z,1001.2
2017-11-04T03:28:13.432Z,1001.19
2017-11-04T03:28:53.873Z,1001.17
2017-11-04T03:29:34.283Z,1001.21
2017-11-04T03:30:14.730Z,1001.2
2017-11-04T03:30:55.029Z,1001.2
2017-11-04T03:31:35.527Z,1001.18
2017-11-04T03:32:15.890Z,1001.18
2017-11-04T03:32:56.228Z,1001.18
2017-11-04T03:33:36.771Z,1001.25
2017-11-04T03:34:17.160Z,1001.16
2017-11-04T03:34:57.661Z,1001.2
2017-11-04T03:35:38.139Z,1001.22
2017-11-04T03:36:18.499Z,1001.18
2017-11-04T03:36:58.930Z,1001.17
2017-11-04T03:37:39.461Z,1001.19
2017-11-04T03:38:19.827Z,1001.15
2017-11-04T03:39:00.214Z,1001.13
2017-11-04T03:39:40.764Z,1001.09
2017-11-04T03:40:21.180Z,1001.1
2017-11-04T03:41:01.597Z,1001.1
2017-11-04T03:41:41.996Z,1001.1
2017-11-04T03:42:22.383Z,1001.17
2017-11-04T03:43:02.770Z,1001.15
2017-11-04T03:43:43.217Z,1001.13
2017-11-04T03:44:23.624Z,1001.12
2017-11-04T03:45:04.014Z,1001.12
2017-11-04T03:45:44.569Z,1001.14
2017-11-04T03:46:24.910Z,1001.13
2017-11-04T03:47:05.327Z,1001.07
2017-11-04T03:47:45.727Z,1001.07
2017-11-04T03:48:26.160Z,1001.05
2017-11-04T03:49:06.526Z,1001.08
2017-11-04T03:49:46.950Z,1001.08
2017-11-04T03:50:27.455Z,1001.07
2017-11-04T03:51:07.844Z,1001.08
2017-11-04T03:51:48.280Z,1001.07
2017-11-04T03:52:28.644Z,1001.03
2017-11-04T03:53:09.074Z,1001.09
2017-11-04T03:53:49.435Z,1001.04
2017-11-04T03:54:29.845Z,1001.01
2017-11-04T03:55:10.276Z,1001.03
2017-11-04T03:55:50.682Z,1001.01
2017-11-04T03:56:31.060Z,1001.02
2017-11-04T03:57:11.466Z,1001
2017-11-04T03:57:51.920Z,1000.95
2017-11-04T03:58:32.330Z,1000.89
2017-11-04T03:59:12.787Z,1000.95
2017-11-04T03:59:53.210Z,1000.9
2017-11-04T04:00:33.595Z,1000.9
2017-11-04T04:01:14.062Z,1000.88
2017-11-04T04:41:41.980Z,1000.35
2017-11-04T04:42:35.495Z,1000.39
2017-11-04T04:43:15.775Z,1000.36
2017-11-04T04:43:56.269Z,1000.37
2017-11-04T04:44:36.622Z,1000.41
2017-11-04T04:45:17.023Z,1000.41
2017-11-04T04:45:57.419Z,1000.38
2017-11-04T04:46:37.848Z,1000.42
2017-11-04T04:47:18.164Z,1000.4
2017-11-04T04:47:58.601Z,1000.35
2017-11-04T04:48:39.161Z,1000.4
2017-11-04T04:49:19.568Z,1000.35
2017-11-04T04:49:59.956Z,1000.33
2017-11-04T04:50:40.307Z,1000.29
2017-11-04T04:51:20.753Z,1000.34
2017-11-04T04:52:01.093Z,1000.42
2017-11-04T04:52:41.616Z,1000.32
2017-11-04T04:53:22.058Z,1000.33
2017-11-04T04:54:02.501Z,1000.36
2017-11-04T04:54:42.808Z,1000.35
2017-11-04T04:55:23.289Z,1000.29
2017-11-04T04:56:03.656Z,1000.32
2017-11-04T04:56:44.039Z,1000.29
2017-11-04T04:57:24.458Z,1000.23
2017-11-04T04:58:04.881Z,1000.15
2017-11-04T04:58:45.274Z,1000.13
2017-11-04T04:59:25.694Z,1000.13
2017-11-04T05:00:06.073Z,1000.13
2017-11-04T05:00:46.513Z,1000.15
2017-11-04T05:01:26.949Z,1000.11
2017-11-04T05:02:07.456Z,1000.09
2017-11-04T05:02:47.852Z,1000.08
2017-11-04T05:03:28.291Z,1000.11
2017-11-04T05:04:08.655Z,1000.09
2017-11-04T05:04:49.059Z,1000.07
2017-11-04T05:05:29.523Z,1000.09
2017-11-04T05:06:09.904Z,1000.11
2017-11-04T05:06:50.412Z,1000.06
2017-11-04T05:07:30.781Z,1000.11
2017-11-04T05:08:11.174Z,1000.1
2017-11-04T05:08:51.635Z,1000.07
2017-11-04T05:09:32.061Z,1000.04
2017-11-04T05:10:12.452Z,1000.06
2017-11-04T05:10:52.781Z,1000.06
2017-11-04T05:11:33.240Z,1000.12
2017-11-04T05:12:13.636Z,1000.14
2017-11-04T05:12:54.065Z,1000.14
2017-11-04T05:13:34.435Z,1000.15
2017-11-04T05:14:14.931Z,1000.1
2017-11-04T05:14:55.366Z,1000.14
2017-11-04T05:15:35.765Z,1000.07
2017-11-04T05:16:16.182Z,1000.07
2017-11-04T05:16:56.630Z,1000.11
2017-11-04T05:17:37.121Z,1000.12
2017-11-04T05:18:17.510Z,1000.11
2017-11-04T05:18:57.859Z,1000.15
2017-11-04T05:19:38.298Z,1000.17
2017-11-04T05:20:18.659Z,1000.14
2017-11-04T05:20:59.115Z,1000.15
2017-11-04T05:21:39.543Z,1000.1
2017-11-04T05:22:19.918Z,1000.1
2017-11-04T05:23:00.355Z,1000.12
2017-11-04T05:23:40.744Z,1000.11
2017-11-04T05:24:21.233Z,1000.07
2017-11-04T05:25:01.612Z,1000.07
2017-11-04T05:25:42.057Z,1000.06
2017-11-04T05:26:22.477Z,1000.07
2017-11-04T05:27:02.808Z,1000.04
2017-11-04T05:27:43.289Z,1000.07
2017-11-04T05:28:23.653Z,1000.07
2017-11-04T05:29:04.082Z,1000.06
2017-11-04T05:29:44.495Z,1000.01
2017-11-04T05:30:24.842Z,1000.02
2017-11-04T05:31:05.335Z,1000.01
2017-11-04T05:31:45.735Z,999.94
2017-11-04T05:32:26.153Z,999.96
2017-11-04T05:33:06.499Z,999.95
2017-11-04T05:33:46.927Z,999.97
2017-11-04T05:34:27.438Z,999.99
2017-11-04T05:35:07.796Z,999.95
2017-11-04T05:35:48.265Z,999.88
2017-11-04T05:36:28.639Z,999.93
2017-11-04T05:37:08.997Z,999.91
2017-11-04T05:37:49.430Z,999.91
2017-11-04T05:38:29.810Z,999.91
2017-11-04T05:39:10.250Z,999.87
2017-11-04T05:39:50.658Z,999.96
2017-11-04T05:40:31.079Z,999.94
2017-11-04T05:41:11.458Z,999.96
2017-11-04T05:41:51.840Z,999.98
2017-11-04T05:42:32.331Z,999.99
2017-11-04T05:43:12.753Z,999.96
2017-11-04T05:43:53.147Z,999.96
2017-11-04T05:44:33.746Z,999.96
2017-11-04T05:45:14.128Z,999.98
2017-11-04T05:45:54.528Z,999.95
2017-11-04T05:46:34.916Z,999.98
2017-11-04T05:47:15.355Z,999.95
2017-11-04T05:47:55.718Z,999.96
2017-11-04T05:48:36.073Z,999.97
2017-11-04T05:49:16.584Z,999.93
2017-11-04T05:49:57.051Z,999.92
2017-11-04T05:50:37.591Z,999.91
2017-11-04T05:51:17.886Z,999.92
2017-11-04T05:51:58.399Z,999.91
2017-11-04T05:52:38.835Z,999.92
2017-11-04T05:53:19.256Z,999.91
2017-11-04T05:53:59.746Z,999.95
2017-11-04T05:54:40.271Z,999.93
2017-11-04T05:55:20.793Z,999.9
2017-11-04T05:56:01.231Z,999.93
2017-11-04T05:56:41.583Z,999.91
2017-11-04T05:57:22.055Z,999.91
2017-11-04T05:58:02.545Z,999.9
2017-11-04T05:58:43.006Z,999.92
2017-11-04T05:59:23.441Z,999.93
2017-11-04T06:00:03.884Z,999.96
2017-11-04T06:00:44.424Z,999.93
2017-11-04T06:01:24.769Z,1000.01
2017-11-04T06:02:05.189Z,999.98
2017-11-04T06:02:45.548Z,1000
2017-11-04T06:03:25.990Z,999.98
2017-11-04T06:04:06.346Z,999.97
2017-11-04T06:04:46.789Z,999.92
2017-11-04T06:05:27.181Z,999.93
2017-11-04T06:06:07.611Z,999.95
2017-11-04T06:06:48.159Z,999.94
2017-11-04T06:07:28.641Z,999.91
2017-11-04T06:08:09.119Z,999.9
2017-11-04T06:08:49.596Z,999.88
2017-11-04T06:09:30.074Z,999.85
2017-11-04T06:10:10.579Z,999.86
2017-11-04T06:10:51.100Z,999.81
2017-11-04T06:11:31.439Z,999.74
2017-11-04T06:12:11.914Z,999.77
2017-11-04T06:12:52.323Z,999.77
2017-11-04T06:13:32.723Z,999.84
2017-11-04T06:14:13.095Z,999.8
2017-11-04T06:14:53.613Z,999.78
2017-11-04T06:15:33.983Z,999.83
2017-11-04T06:16:14.438Z,999.86
2017-11-04T06:16:54.918Z,999.89
2017-11-04T06:17:35.374Z,999.87
2017-11-04T06:18:15.771Z,999.9
2017-11-04T06:18:56.225Z,999.91
2017-11-04T06:19:36.763Z,999.89
2017-11-04T06:20:17.154Z,999.92
2017-11-04T06:20:57.586Z,999.88
2017-11-04T06:21:37.962Z,999.9
2017-11-04T06:22:18.367Z,999.86
2017-11-04T06:22:58.926Z,999.82
2017-11-04T06:23:39.332Z,999.81
2017-11-04T06:24:19.903Z,999.79
2017-11-04T06:25:00.335Z,999.79
2017-11-04T06:25:40.805Z,999.81
2017-11-04T06:26:21.309Z,999.79
2017-11-04T06:27:01.649Z,999.78
2017-11-04T06:27:42.120Z,999.82
2017-11-04T06:28:22.640Z,999.85
2017-11-04T06:29:02.954Z,999.84
2017-11-04T06:29:43.381Z,999.86
2017-11-04T06:30:23.734Z,999.87
2017-11-04T06:31:04.200Z,999.88
2017-11-04T06:31:44.657Z,999.93
2017-11-04T06:32:25.194Z,999.89
2017-11-04T06:33:05.741Z,999.86
2017-11-04T06:33:46.164Z,999.86
2017-11-04T06:34:26.702Z,999.83
2017-11-04T06:35:07.106Z,999.83
2017-11-04T06:35:47.520Z,999.83
2017-11-04T06:36:28.001Z,999.81
2017-11-04T06:37:08.418Z,999.8
2017-11-04T06:37:48.758Z,999.84
2017-11-04T06:38:29.227Z,999.85
2017-11-04T06:39:09.689Z,999.85
2017-11-04T06:39:50.131Z,999.84
2017-11-04T06:40:30.534Z,999.85
2017-11-04T06:41:10.938Z,999.88
2017-11-04T06:41:51.369Z,999.84
2017-11-04T06:42:31.774Z,999.84
2017-11-04T06:43:12.256Z,999.86
2017-11-04T06:43:52.570Z,999.85
2017-11-04T06:44:32.959Z,999.89
2017-11-04T06:45:13.384Z,999.84
2017-11-04T06:45:53.762Z,999.84
2017-11-04T06:46:34.184Z,999.86
2017-11-04T06:47:14.586Z,999.83
2017-11-04T06:47:54.951Z,999.83
2017-11-04T06:48:35.425Z,999.83
2017-11-04T06:49:15.797Z,999.83
2017-11-04T06:49:56.139Z,999.8
2017-11-04T06:50:36.612Z,999.83
2017-11-04T06:51:17.048Z,999.82
2017-11-04T06:51:57.385Z,999.83
2017-11-04T06:52:37.750Z,999.85
2017-11-04T06:53:18.196Z,999.85
2017-11-04T06:53:58.540Z,999.85
2017-11-04T06:54:39.056Z,999.82
2017-11-04T06:55:19.422Z,999.78
2017-11-04T06:55:59.874Z,999.79
2017-11-04T06:56:41.059Z,999.76
2017-11-04T06:57:21.486Z,999.74
2017-11-04T06:58:01.897Z,999.77
2017-11-04T06:58:42.235Z,999.74
2017-11-04T06:59:22.712Z,999.77
2017-11-04T07:00:03.081Z,999.78
2017-11-04T07:00:43.551Z,999.77
2017-11-04T07:01:24.097Z,999.75
2017-11-04T07:02:04.404Z,999.77
2017-11-04T07:02:44.924Z,999.76
2017-11-04T07:03:25.316Z,999.75
2017-11-04T07:04:05.755Z,999.75
2017-11-04T07:04:46.209Z,999.79
2017-11-04T07:05:26.603Z,999.78
2017-11-04T07:06:07.012Z,999.79
2017-11-04T07:06:47.433Z,999.75
2017-11-04T07:07:27.827Z,999.78
2017-11-04T07:08:08.236Z,999.76
2017-11-04T07:08:48.726Z,999.81
2017-11-04T07:09:29.206Z,999.76
2017-11-04T07:10:09.593Z,999.74
2017-11-04T07:10:50.031Z,999.75
2017-11-04T07:11:30.455Z,999.72
2017-11-04T07:12:10.936Z,999.72
2017-11-04T07:12:51.412Z,999.71
2017-11-04T07:13:31.740Z,999.75
2017-11-04T07:14:12.243Z,999.71
2017-11-04T07:14:52.652Z,999.7
2017-11-04T07:15:33.196Z,999.69
2017-11-04T07:16:13.598Z,999.68
2017-11-04T07:16:54.051Z,999.68
2017-11-04T07:17:34.578Z,999.65
2017-11-04T07:18:15.001Z,999.72
2017-11-04T07:18:55.379Z,999.65
2017-11-04T07:19:35.830Z,999.66
2017-11-04T07:20:16.211Z,999.68
2017-11-04T07:20:56.645Z,999.65
2017-11-04T07:21:37.033Z,999.66
2017-11-04T07:22:17.480Z,999.64
2017-11-04T07:22:57.901Z,999.67
2017-11-04T07:23:38.213Z,999.66
2017-11-04T07:24:18.744Z,999.66
2017-11-04T07:24:59.221Z,999.66
2017-11-04T07:25:39.589Z,999.67
2017-11-04T07:26:20.016Z,999.69
2017-11-04T07:27:00.547Z,999.68
2017-11-04T07:27:40.919Z,999.65
2017-11-04T07:28:21.263Z,999.66
2017-11-04T07:29:01.648Z,999.6
2017-11-04T07:29:42.134Z,999.68
2017-11-04T07:30:22.531Z,999.66
2017-11-04T07:31:03.069Z,999.69
2017-11-04T07:31:43.518Z,999.7
2017-11-04T07:32:23.947Z,999.66
2017-11-04T07:33:04.306Z,999.67
2017-11-04T07:33:44.742Z,999.67
2017-11-04T07:34:25.146Z,999.64
2017-11-04T07:35:05.605Z,999.65
2017-11-04T07:35:45.937Z,999.68
2017-11-04T07:36:26.401Z,999.67
2017-11-04T07:37:06.717Z,999.7
2017-11-04T07:37:47.142Z,999.65
2017-11-04T07:38:27.573Z,999.66
2017-11-04T07:39:08.022Z,999.66
2017-11-04T07:39:48.457Z,999.68
2017-11-04T07:40:28.812Z,999.7
2017-11-04T07:41:09.173Z,999.7
2017-11-04T07:41:49.593Z,999.67
2017-11-04T07:42:30.362Z,999.69
2017-11-04T07:43:11.437Z,999.73
2017-11-04T07:43:51.992Z,999.78
2017-11-04T07:44:32.377Z,999.78
2017-11-04T07:45:12.852Z,999.75
2017-11-04T07:45:53.273Z,999.75
2017-11-04T07:46:33.710Z,999.76
2017-11-04T07:47:14.335Z,999.73
2017-11-04T07:47:54.750Z,999.73
2017-11-04T07:48:35.127Z,999.71
2017-11-04T07:49:15.758Z,999.73
2017-11-04T07:49:56.150Z,999.71
2017-11-04T07:50:36.516Z,999.71
2017-11-04T07:51:16.991Z,999.67
2017-11-04T07:51:57.480Z,999.68
2017-11-04T07:52:37.932Z,999.68
2017-11-04T07:53:18.498Z,999.69
2017-11-04T07:53:58.846Z,999.63
2017-11-04T07:54:39.389Z,999.66
2017-11-04T07:55:19.840Z,999.67
2017-11-04T07:56:00.284Z,999.66
2017-11-04T07:56:40.708Z,999.69
2017-11-04T07:57:21.133Z,999.63
2017-11-04T07:58:01.623Z,999.66
2017-11-04T07:58:42.056Z,999.64
2017-11-04T07:59:22.406Z,999.65
2017-11-04T08:00:02.833Z,999.68
2017-11-04T08:00:43.254Z,999.7
2017-11-04T08:01:23.666Z,999.65
2017-11-04T08:02:04.115Z,999.67
2017-11-04T08:02:45.091Z,999.65
2017-11-04T08:03:28.596Z,999.62
2017-11-04T08:04:08.491Z,999.64
2017-11-04T08:04:48.866Z,999.6
2017-11-04T08:05:29.256Z,999.6
2017-11-04T08:06:09.695Z,999.59
2017-11-04T08:06:50.104Z,999.55
2017-11-04T08:07:30.651Z,999.55
2017-11-04T08:08:11.020Z,999.52
2017-11-04T08:08:51.463Z,999.55
2017-11-04T08:09:31.867Z,999.54
2017-11-04T08:10:12.359Z,999.47
2017-11-04T08:10:52.771Z,999.5
2017-11-04T08:11:33.149Z,999.51
2017-11-04T08:12:13.519Z,999.48
2017-11-04T08:12:53.921Z,999.52
2017-11-04T08:13:34.441Z,999.46
2017-11-04T08:14:14.832Z,999.47
2017-11-04T08:14:55.263Z,999.44
2017-11-04T08:15:35.753Z,999.46
2017-11-04T08:16:16.180Z,999.43
2017-11-04T08:16:56.620Z,999.46
2017-11-04T08:17:36.962Z,999.47
2017-11-04T08:18:17.469Z,999.47
2017-11-04T08:18:57.972Z,999.45
2017-11-04T08:19:38.347Z,999.44
2017-11-04T08:20:18.860Z,999.52
2017-11-04T08:20:59.213Z,999.49
2017-11-04T08:21:39.655Z,999.48
2017-11-04T08:22:20.072Z,999.49
2017-11-04T08:23:00.436Z,999.49
2017-11-04T08:23:40.856Z,999.46
2017-11-04T08:24:21.302Z,999.41
2017-11-04T08:25:01.760Z,999.47
2017-11-04T08:25:42.114Z,999.42
2017-11-04T08:26:22.495Z,999.39
2017-11-04T08:27:02.986Z,999.41
2017-11-04T08:27:43.339Z,999.38
2017-11-04T08:28:23.769Z,999.36
2017-11-04T08:29:04.206Z,999.39
2017-11-04T08:29:44.815Z,999.4
2017-11-04T08:30:25.241Z,999.39
2017-11-04T08:31:05.556Z,999.42
2017-11-04T08:31:46.004Z,999.44
2017-11-04T08:32:26.480Z,999.43
2017-11-04T08:33:06.821Z,999.45
2017-11-04T08:33:47.213Z,999.49
2017-11-04T08:34:27.713Z,999.52
2017-11-04T08:35:08.168Z,999.51
2017-11-04T08:35:48.582Z,999.54
2017-11-04T08:36:28.969Z,999.47
2017-11-04T08:37:09.448Z,999.49
2017-11-04T08:37:49.874Z,999.47
2017-11-04T08:38:30.248Z,999.47
2017-11-04T08:39:10.650Z,999.47
2017-11-04T08:39:51.030Z,999.39
2017-11-04T08:40:31.490Z,999.36
2017-11-04T08:41:11.928Z,999.35
2017-11-04T08:41:52.396Z,999.35
2017-11-04T08:42:32.760Z,999.36
2017-11-04T08:43:13.174Z,999.37
2017-11-04T08:43:53.603Z,999.35
2017-11-04T08:44:34.063Z,999.33
2017-11-04T08:45:14.561Z,999.29
2017-11-04T08:45:55.086Z,999.29
2017-11-04T08:46:35.591Z,999.26
2017-11-04T08:47:16.062Z,999.3
2017-11-04T08:47:56.615Z,999.28
2017-11-04T08:48:37.195Z,999.28
2017-11-04T08:49:17.620Z,999.28
2017-11-04T08:49:58.000Z,999.28
2017-11-04T08:50:38.378Z,999.32
2017-11-04T08:51:18.943Z,999.29
2017-11-04T08:51:59.516Z,999.3
2017-11-04T08:52:39.925Z,999.28
2017-11-04T08:53:23.455Z,999.21
2017-11-04T08:54:03.887Z,999.29
2017-11-04T08:54:44.388Z,999.24
2017-11-04T08:55:31.469Z,999.25
2017-11-04T08:56:18.501Z,999.28
2017-11-04T08:56:58.965Z,999.26
2017-11-04T08:57:39.425Z,999.24
2017-11-04T08:58:19.856Z,999.24
2017-11-04T08:59:00.264Z,999.2